Time;durP1;ratioP1;P1;durP2;ratioP2;P2;SDS_P1;SDS_P2;PMS_P1;PMS_P2;Temp;Humidity;BMP_temperature;BMP_pressure;BME280_temperature;BME280_humidity;BME280_pressure;Samples;Min_cycle;Max_cycle;Signal;HPM_P1;HPM_P2
2023/11/21 00:01:03;;;;;;;25.80;11.65;;;;;;;;;;5051628;28;20021;-82
2023/11/21 00:03:29;;;;;;;26.25;11.27;;;;;;;;;;5061695;28;20487;-82
2023/11/21 00:05:54;;;;;;;26.95;10.35;;;;;;;;;;5071280;28;20040;-81
2023/11/21 00:08:19;;;;;;;34.15;11.35;;;;;;;;;;5063263;28;20023;-81
2023/11/21 00:10:45;;;;;;;25.05;10.50;;;;;;;;;;5065479;28;20119;-81
2023/11/21 00:13:12;;;;;;;25.88;11.88;;;;;;;;;;5065160;28;20063;-81
2023/11/21 00:15:37;;;;;;;24.58;10.70;;;;;;;;;;5052515;28;20029;-82
2023/11/21 00:18:02;;;;;;;29.65;12.15;;;;;;;;;;5059663;28;20065;-81
2023/11/21 00:20:28;;;;;;;31.13;11.15;;;;;;;;;;5063242;28;20025;-82
2023/11/21 00:22:53;;;;;;;25.23;10.93;;;;;;;;;;5053264;28;20051;-81
2023/11/21 00:25:18;;;;;;;30.00;11.52;;;;;;;;;;5064246;28;20028;-82
2023/11/21 00:27:44;;;;;;;29.75;11.70;;;;;;;;;;5050928;28;20032;-80
2023/11/21 00:30:09;;;;;;;35.92;12.27;;;;;;;;;;5070937;28;20024;-82
2023/11/21 00:32:37;;;;;;;30.60;11.75;;;;;;;;;;5058761;28;20460;-81
2023/11/21 00:35:03;;;;;;;26.98;11.63;;;;;;;;;;5064783;28;20397;-82
2023/11/21 00:37:28;;;;;;;26.52;11.25;;;;;;;;;;5052326;28;20037;-81
2023/11/21 00:39:53;;;;;;;34.58;12.18;;;;;;;;;;5054695;28;20021;-81
2023/11/21 00:42:19;;;;;;;34.90;11.77;;;;;;;;;;5050680;28;20021;-81
2023/11/21 00:44:44;;;;;;;32.95;13.13;;;;;;;;;;5064705;28;20031;-81
2023/11/21 00:47:09;;;;;;;31.33;12.25;;;;;;;;;;5064585;28;20064;-82
2023/11/21 00:49:34;;;;;;;29.48;13.20;;;;;;;;;;5052056;28;20055;-81
2023/11/21 00:52:00;;;;;;;40.67;13.30;;;;;;;;;;5065895;28;20040;-81
2023/11/21 00:54:26;;;;;;;33.15;13.13;;;;;;;;;;5060043;28;20035;-82
2023/11/21 00:56:52;;;;;;;33.08;12.13;;;;;;;;;;5057461;28;20025;-81
2023/11/21 00:59:17;;;;;;;33.50;13.27;;;;;;;;;;5070767;28;20373;-81
2023/11/21 01:01:42;;;;;;;31.15;13.02;;;;;;;;;;5060238;28;20415;-82
2023/11/21 01:04:07;;;;;;;37.05;14.50;;;;;;;;;;5068751;28;20123;-81
2023/11/21 01:06:33;;;;;;;30.23;12.57;;;;;;;;;;5065756;28;20017;-81
2023/11/21 01:08:58;;;;;;;29.65;13.48;;;;;;;;;;5057229;28;20021;-81
2023/11/21 01:11:23;;;;;;;38.38;13.90;;;;;;;;;;5074742;28;20027;-81
2023/11/21 01:13:48;;;;;;;35.13;13.40;;;;;;;;;;5060458;28;20025;-81
2023/11/21 01:16:14;;;;;;;32.80;12.85;;;;;;;;;;5067770;28;20028;-82
2023/11/21 01:18:39;;;;;;;31.70;13.27;;;;;;;;;;5066902;28;20058;-82
2023/11/21 01:21:04;;;;;;;33.67;13.60;;;;;;;;;;5048828;28;20025;-82
2023/11/21 01:23:29;;;;;;;35.05;13.45;;;;;;;;;;5064875;28;20020;-81
2023/11/21 01:25:56;;;;;;;32.30;12.98;;;;;;;;;;5075394;28;20416;-82
2023/11/21 01:28:21;;;;;;;30.52;13.02;;;;;;;;;;5068005;28;20028;-81
2023/11/21 01:30:46;;;;;;;32.72;14.20;;;;;;;;;;5074195;28;20031;-81
2023/11/21 01:33:12;;;;;;;29.65;13.32;;;;;;;;;;5074255;28;20444;-81
2023/11/21 01:35:37;;;;;;;31.65;13.38;;;;;;;;;;5075378;28;20021;-81
2023/11/21 01:38:03;;;;;;;32.13;14.10;;;;;;;;;;5066669;28;20158;-81
2023/11/21 01:40:30;;;;;;;31.92;13.75;;;;;;;;;;5074045;28;20072;-82
2023/11/21 01:42:58;;;;;;;30.20;13.23;;;;;;;;;;5059719;28;20021;-81
2023/11/21 01:45:24;;;;;;;33.05;13.77;;;;;;;;;;5075199;28;20028;-81
2023/11/21 01:47:50;;;;;;;30.63;12.88;;;;;;;;;;5064852;28;20044;-81
2023/11/21 01:50:17;;;;;;;28.60;12.60;;;;;;;;;;5073509;28;20436;-81
2023/11/21 01:52:43;;;;;;;35.47;13.65;;;;;;;;;;5062759;28;20122;-81
2023/11/21 01:55:09;;;;;;;30.50;13.88;;;;;;;;;;5072305;28;20170;-81
2023/11/21 01:57:35;;;;;;;26.65;12.88;;;;;;;;;;5052620;28;20025;-81
2023/11/21 02:00:15;;;;;;;23.10;11.63;;;;;;;;;;5054962;28;20100;-81
2023/11/21 02:02:40;;;;;;;27.80;12.63;;;;;;;;;;5052097;28;20424;-81
2023/11/21 02:05:05;;;;;;;27.48;13.32;;;;;;;;;;5053479;28;20027;-81
2023/11/21 02:07:32;;;;;;;28.67;13.20;;;;;;;;;;5053510;28;20017;-82
2023/11/21 02:09:57;;;;;;;29.85;13.52;;;;;;;;;;5053443;28;20070;-82
2023/11/21 02:12:22;;;;;;;29.45;13.10;;;;;;;;;;5054467;28;20468;-81
2023/11/21 02:14:48;;;;;;;27.13;12.40;;;;;;;;;;5053393;28;20035;-81
2023/11/21 02:17:14;;;;;;;29.08;13.98;;;;;;;;;;5054633;28;20433;-82
2023/11/21 02:19:39;;;;;;;23.67;10.95;;;;;;;;;;5053110;28;20040;-81
2023/11/21 02:22:06;;;;;;;28.27;12.05;;;;;;;;;;5053080;28;20049;-81
2023/11/21 02:24:32;;;;;;;27.58;12.15;;;;;;;;;;5053259;28;20020;-81
2023/11/21 02:26:57;;;;;;;21.52;10.13;;;;;;;;;;5053144;28;20023;-81
2023/11/21 02:29:27;;;;;;;23.25;10.85;;;;;;;;;;5053162;28;20480;-81
2023/11/21 02:31:54;;;;;;;29.23;12.63;;;;;;;;;;5052228;28;20499;-81
2023/11/21 02:34:19;;;;;;;30.20;12.50;;;;;;;;;;5053066;28;20041;-81
2023/11/21 02:36:45;;;;;;;30.35;12.30;;;;;;;;;;5052834;28;20052;-81
2023/11/21 02:39:10;;;;;;;25.58;11.25;;;;;;;;;;5053098;28;20060;-81
2023/11/21 02:41:36;;;;;;;28.33;11.30;;;;;;;;;;5052878;28;20369;-81
2023/11/21 02:44:02;;;;;;;30.10;12.20;;;;;;;;;;5054109;28;20036;-81
2023/11/21 02:46:27;;;;;;;26.73;11.57;;;;;;;;;;5053293;28;20025;-81
2023/11/21 02:48:55;;;;;;;27.40;12.70;;;;;;;;;;5052534;28;20025;-81
2023/11/21 02:51:20;;;;;;;29.40;12.32;;;;;;;;;;5053784;28;20017;-81
2023/11/21 02:53:50;;;;;;;33.97;12.82;;;;;;;;;;5052578;28;20380;-80
2023/11/21 02:56:15;;;;;;;29.15;11.98;;;;;;;;;;5052602;28;20060;-81
2023/11/21 02:58:41;;;;;;;28.40;12.25;;;;;;;;;;5052193;28;20025;-81
2023/11/21 03:01:08;;;;;;;31.38;12.98;;;;;;;;;;5052517;28;20508;-81
2023/11/21 03:03:33;;;;;;;26.55;11.70;;;;;;;;;;5052539;28;20017;-81
2023/11/21 03:05:58;;;;;;;25.23;11.57;;;;;;;;;;5051225;28;20017;-81
2023/11/21 03:08:23;;;;;;;29.63;12.85;;;;;;;;;;5052272;28;20390;-81
2023/11/21 03:10:48;;;;;;;32.30;13.80;;;;;;;;;;5052624;28;20020;-81
2023/11/21 03:13:14;;;;;;;30.48;12.60;;;;;;;;;;5052146;28;20074;-81
2023/11/21 03:15:39;;;;;;;30.77;11.23;;;;;;;;;;5053570;28;20024;-82
2023/11/21 03:18:04;;;;;;;29.48;13.50;;;;;;;;;;5051867;28;20476;-82
2023/11/21 03:20:30;;;;;;;27.02;12.82;;;;;;;;;;5051977;28;20094;-81
2023/11/21 03:22:55;;;;;;;26.00;12.57;;;;;;;;;;5051668;28;20033;-81
2023/11/21 03:25:20;;;;;;;30.38;12.13;;;;;;;;;;5051734;28;20075;-82
2023/11/21 03:27:45;;;;;;;29.63;12.60;;;;;;;;;;5051839;28;20039;-82
2023/11/21 03:30:11;;;;;;;27.30;12.52;;;;;;;;;;5051924;28;20177;-81
2023/11/21 03:32:36;;;;;;;27.65;12.88;;;;;;;;;;5052215;28;20028;-82
2023/11/21 03:35:02;;;;;;;31.48;13.43;;;;;;;;;;5051767;28;20025;-81
2023/11/21 03:37:30;;;;;;;29.77;12.55;;;;;;;;;;5051612;28;20090;-82
2023/11/21 03:39:56;;;;;;;27.40;12.25;;;;;;;;;;5050416;28;20017;-82
2023/11/21 03:42:21;;;;;;;27.55;12.60;;;;;;;;;;5039001;28;20050;-82
2023/11/21 03:44:46;;;;;;;28.30;12.23;;;;;;;;;;5051798;28;20040;-82
2023/11/21 03:47:11;;;;;;;29.25;13.13;;;;;;;;;;5051559;28;20074;-81
2023/11/21 03:49:37;;;;;;;27.60;12.18;;;;;;;;;;5051608;28;20029;-81
2023/11/21 03:52:03;;;;;;;29.38;12.60;;;;;;;;;;5052683;28;20056;-81
2023/11/21 03:54:28;;;;;;;27.48;11.95;;;;;;;;;;5051459;28;20027;-81
2023/11/21 03:56:53;;;;;;;32.70;13.35;;;;;;;;;;5051368;28;20036;-82
2023/11/21 03:59:18;;;;;;;31.40;13.18;;;;;;;;;;5051341;28;20017;-82
2023/11/21 04:01:43;;;;;;;28.95;11.80;;;;;;;;;;5052931;28;20025;-81
2023/11/21 04:04:09;;;;;;;28.38;12.82;;;;;;;;;;5052456;28;20440;-81
2023/11/21 04:06:35;;;;;;;28.55;12.10;;;;;;;;;;5051257;28;20029;-81
2023/11/21 04:09:01;;;;;;;31.00;13.05;;;;;;;;;;5051201;28;20016;-81
2023/11/21 04:11:26;;;;;;;31.17;13.20;;;;;;;;;;5051211;28;20180;-81
2023/11/21 04:13:52;;;;;;;26.08;12.35;;;;;;;;;;5051404;28;20400;-81
2023/11/21 04:16:18;;;;;;;27.48;12.77;;;;;;;;;;5050891;28;20496;-81
2023/11/21 04:18:43;;;;;;;28.92;12.45;;;;;;;;;;5050873;28;20111;-81
2023/11/21 04:21:08;;;;;;;30.73;13.15;;;;;;;;;;5048145;28;20052;-80
2023/11/21 04:23:35;;;;;;;31.05;12.73;;;;;;;;;;5051228;28;20017;-81
2023/11/21 04:26:01;;;;;;;35.03;13.85;;;;;;;;;;5050917;28;20025;-81
2023/11/21 04:28:27;;;;;;;31.02;12.90;;;;;;;;;;5052176;28;20029;-81
2023/11/21 04:30:52;;;;;;;34.17;13.85;;;;;;;;;;5050937;28;20446;-81
2023/11/21 04:33:17;;;;;;;36.72;14.10;;;;;;;;;;5050905;28;20059;-81
2023/11/21 04:35:43;;;;;;;34.92;13.43;;;;;;;;;;5049789;28;20082;-80
2023/11/21 04:38:08;;;;;;;35.03;14.82;;;;;;;;;;5050416;28;20020;-81
2023/11/21 04:40:33;;;;;;;39.78;14.80;;;;;;;;;;5050556;28;20079;-82
2023/11/21 04:42:58;;;;;;;35.63;13.93;;;;;;;;;;5052239;28;20108;-81
2023/11/21 04:45:23;;;;;;;37.25;14.60;;;;;;;;;;5050696;28;20009;-81
2023/11/21 04:47:49;;;;;;;38.38;14.63;;;;;;;;;;5050803;28;20400;-81
2023/11/21 04:50:14;;;;;;;42.72;15.10;;;;;;;;;;5050605;28;20021;-81
2023/11/21 04:52:39;;;;;;;38.10;15.45;;;;;;;;;;5052041;28;20456;-81
2023/11/21 04:55:06;;;;;;;38.85;15.68;;;;;;;;;;5050583;28;20028;-81
2023/11/21 04:57:31;;;;;;;40.65;15.82;;;;;;;;;;5051876;28;20162;-81
2023/11/21 04:59:57;;;;;;;39.15;14.60;;;;;;;;;;5042585;28;20021;-82
2023/11/21 05:02:22;;;;;;;40.35;15.10;;;;;;;;;;5050490;28;20384;-81
2023/11/21 05:04:47;;;;;;;43.70;15.38;;;;;;;;;;5050607;28;20017;-81
2023/11/21 05:07:13;;;;;;;40.30;14.80;;;;;;;;;;5050575;28;20029;-81
2023/11/21 05:09:45;;;;;;;36.05;13.88;;;;;;;;;;5050453;28;20066;-81
2023/11/21 05:12:11;;;;;;;38.13;14.27;;;;;;;;;;5041500;28;20114;-81
2023/11/21 05:14:36;;;;;;;36.65;15.20;;;;;;;;;;5051703;28;20123;-81
2023/11/21 05:17:01;;;;;;;42.47;14.85;;;;;;;;;;5050470;28;20032;-81
2023/11/21 05:19:27;;;;;;;35.85;14.45;;;;;;;;;;5050216;28;20459;-81
2023/11/21 05:21:52;;;;;;;42.35;15.00;;;;;;;;;;5050292;28;20029;-81
2023/11/21 05:24:17;;;;;;;40.90;15.35;;;;;;;;;;5051741;28;20017;-81
2023/11/21 05:26:42;;;;;;;38.38;15.77;;;;;;;;;;5050348;28;20445;-81
2023/11/21 05:29:08;;;;;;;46.38;15.98;;;;;;;;;;5051705;28;20358;-81
2023/11/21 05:31:34;;;;;;;41.35;15.38;;;;;;;;;;5051378;28;20132;-81
2023/11/21 05:33:59;;;;;;;33.30;13.40;;;;;;;;;;5050390;28;20052;-81
2023/11/21 05:36:24;;;;;;;38.47;15.50;;;;;;;;;;5051411;28;20025;-80
2023/11/21 05:38:49;;;;;;;34.83;13.50;;;;;;;;;;5050305;28;20029;-81
2023/11/21 05:41:15;;;;;;;42.17;15.07;;;;;;;;;;5051461;28;20025;-81
2023/11/21 05:43:40;;;;;;;39.25;13.93;;;;;;;;;;5050139;28;20373;-81
2023/11/21 05:46:07;;;;;;;32.92;14.30;;;;;;;;;;5040176;28;20037;-81
2023/11/21 05:48:32;;;;;;;39.60;13.95;;;;;;;;;;5051284;28;20496;-81
2023/11/21 05:50:58;;;;;;;35.60;14.00;;;;;;;;;;5053673;28;20029;-81
2023/11/21 05:53:24;;;;;;;38.95;15.02;;;;;;;;;;5053846;28;20361;-80
2023/11/21 05:55:49;;;;;;;41.58;14.68;;;;;;;;;;5053671;28;20020;-81
2023/11/21 05:58:14;;;;;;;33.47;14.40;;;;;;;;;;5053758;28;20119;-81
2023/11/21 06:00:40;;;;;;;39.00;14.80;;;;;;;;;;5049348;28;20017;-81
2023/11/21 06:03:06;;;;;;;34.25;14.38;;;;;;;;;;5043799;28;20060;-81
2023/11/21 06:05:33;;;;;;;39.13;13.93;;;;;;;;;;5053622;28;20116;-81
2023/11/21 06:07:58;;;;;;;39.88;15.20;;;;;;;;;;5053402;28;20499;-81
2023/11/21 06:10:24;;;;;;;39.42;14.70;;;;;;;;;;5053342;28;20048;-81
2023/11/21 06:12:49;;;;;;;40.90;14.95;;;;;;;;;;5053381;28;20066;-81
2023/11/21 06:15:15;;;;;;;40.78;15.30;;;;;;;;;;5053390;28;20445;-81
2023/11/21 06:17:40;;;;;;;33.22;13.77;;;;;;;;;;5054642;28;20044;-80
2023/11/21 06:20:09;;;;;;;41.55;15.98;;;;;;;;;;5051643;28;20044;-81
2023/11/21 06:22:43;;;;;;;33.28;13.45;;;;;;;;;;5053026;28;20096;-81
2023/11/21 06:25:09;;;;;;;37.65;13.57;;;;;;;;;;5054497;28;20100;-81
2023/11/21 06:27:37;;;;;;;32.90;13.40;;;;;;;;;;5053296;28;20083;-81
2023/11/21 06:30:02;;;;;;;38.00;15.23;;;;;;;;;;5053151;28;20021;-81
2023/11/21 06:32:29;;;;;;;39.33;13.77;;;;;;;;;;5054456;28;20167;-81
2023/11/21 06:34:54;;;;;;;34.30;13.93;;;;;;;;;;5052994;28;20104;-82
2023/11/21 06:37:22;;;;;;;36.97;15.65;;;;;;;;;;5053214;28;20426;-81
2023/11/21 06:39:48;;;;;;;41.67;16.02;;;;;;;;;;5054361;28;20027;-80
2023/11/21 06:42:14;;;;;;;39.92;13.82;;;;;;;;;;5052814;28;20017;-81
2023/11/21 06:44:41;;;;;;;37.25;15.52;;;;;;;;;;5052954;28;20559;-81
2023/11/21 06:47:06;;;;;;;35.92;13.68;;;;;;;;;;5054209;28;20021;-81
2023/11/21 06:49:31;;;;;;;32.47;13.68;;;;;;;;;;5052764;28;20025;-81
2023/11/21 06:51:57;;;;;;;42.10;14.40;;;;;;;;;;5053624;28;20028;-80
2023/11/21 06:54:22;;;;;;;38.38;14.68;;;;;;;;;;5052647;28;20329;-81
2023/11/21 06:56:47;;;;;;;32.83;13.02;;;;;;;;;;5049318;28;20448;-80
2023/11/21 06:59:13;;;;;;;29.88;12.57;;;;;;;;;;5049446;28;20526;-81
2023/11/21 07:01:41;;;;;;;34.28;13.32;;;;;;;;;;5051454;28;20067;-81
2023/11/21 07:04:06;;;;;;;31.13;12.68;;;;;;;;;;5050189;28;20109;-81
2023/11/21 07:06:32;;;;;;;34.30;14.35;;;;;;;;;;5049497;28;20133;-81
2023/11/21 07:08:58;;;;;;;33.25;12.90;;;;;;;;;;5047179;28;20091;-82
2023/11/21 07:11:23;;;;;;;32.88;12.25;;;;;;;;;;5052108;28;20021;-82
2023/11/21 07:13:48;;;;;;;33.83;13.63;;;;;;;;;;5052070;28;20111;-81
2023/11/21 07:16:15;;;;;;;32.72;12.63;;;;;;;;;;5052284;28;20175;-82
2023/11/21 07:18:40;;;;;;;35.95;13.30;;;;;;;;;;5052066;28;20404;-82
2023/11/21 07:21:06;;;;;;;32.97;11.77;;;;;;;;;;5052133;28;20106;-81
2023/11/21 07:23:31;;;;;;;39.72;13.70;;;;;;;;;;5052952;28;20020;-82
2023/11/21 07:25:57;;;;;;;33.08;12.82;;;;;;;;;;5049619;28;20477;-81
2023/11/21 07:28:23;;;;;;;29.05;12.13;;;;;;;;;;5050146;28;20029;-81
2023/11/21 07:30:48;;;;;;;35.65;12.52;;;;;;;;;;5046642;28;20036;-82
2023/11/21 07:33:14;;;;;;;32.47;12.25;;;;;;;;;;5048170;28;20017;-81
2023/11/21 07:35:39;;;;;;;27.50;11.80;;;;;;;;;;5050199;28;21415;-81
2023/11/21 07:38:04;;;;;;;35.63;13.13;;;;;;;;;;5052434;28;20020;-81
2023/11/21 07:40:29;;;;;;;31.85;12.63;;;;;;;;;;5051377;28;20013;-82
2023/11/21 07:42:57;;;;;;;32.65;12.13;;;;;;;;;;5051374;28;20107;-82
2023/11/21 07:45:22;;;;;;;34.67;14.18;;;;;;;;;;5051396;28;20448;-81
2023/11/21 07:47:47;;;;;;;29.92;13.20;;;;;;;;;;5051358;28;20037;-81
2023/11/21 07:50:13;;;;;;;35.22;13.45;;;;;;;;;;5037388;28;20033;-81
2023/11/21 07:52:38;;;;;;;40.53;14.48;;;;;;;;;;5051441;28;20349;-81
2023/11/21 07:55:04;;;;;;;41.00;13.32;;;;;;;;;;5052351;28;20021;-82
2023/11/21 07:57:29;;;;;;;37.40;14.20;;;;;;;;;;5051014;28;20162;-81
2023/11/21 07:59:55;;;;;;;36.45;14.00;;;;;;;;;;5051225;28;20170;-81
2023/11/21 08:02:20;;;;;;;39.75;13.75;;;;;;;;;;5050910;28;20024;-81
2023/11/21 08:04:45;;;;;;;35.03;13.90;;;;;;;;;;5051083;28;20028;-81
2023/11/21 08:07:10;;;;;;;31.77;13.57;;;;;;;;;;5052703;28;20017;-82
2023/11/21 08:09:36;;;;;;;32.10;14.38;;;;;;;;;;5047525;28;20421;-82
2023/11/21 08:12:02;;;;;;;38.08;13.25;;;;;;;;;;5040848;28;20035;-80
2023/11/21 08:14:27;;;;;;;37.92;14.40;;;;;;;;;;5051096;28;20048;-81
2023/11/21 08:16:57;;;;;;;37.90;14.57;;;;;;;;;;5050727;28;20135;-81
2023/11/21 08:19:23;;;;;;;38.40;14.45;;;;;;;;;;5051043;28;20031;-81
2023/11/21 08:21:48;;;;;;;38.42;14.05;;;;;;;;;;5050989;28;20025;-81
2023/11/21 08:24:14;;;;;;;44.70;13.95;;;;;;;;;;5050937;28;20423;-81
2023/11/21 08:26:39;;;;;;;38.83;14.25;;;;;;;;;;5050828;28;20032;-81
2023/11/21 08:29:06;;;;;;;43.17;15.30;;;;;;;;;;5050936;28;20081;-80
2023/11/21 08:31:32;;;;;;;44.08;15.05;;;;;;;;;;5050322;28;20043;-81
2023/11/21 08:33:57;;;;;;;47.67;15.57;;;;;;;;;;5050699;28;20033;-81
2023/11/21 08:36:25;;;;;;;38.47;15.02;;;;;;;;;;5051922;28;20025;-80
2023/11/21 08:38:52;;;;;;;42.40;14.48;;;;;;;;;;5032643;28;20036;-81
2023/11/21 08:41:17;;;;;;;47.80;15.35;;;;;;;;;;5044630;28;20088;-81
2023/11/21 08:43:42;;;;;;;41.95;14.73;;;;;;;;;;5050697;28;20156;-81
2023/11/21 08:46:11;;;;;;;43.58;14.40;;;;;;;;;;5052141;28;20017;-81
2023/11/21 08:48:36;;;;;;;51.53;14.80;;;;;;;;;;5050578;28;20464;-81
2023/11/21 08:51:02;;;;;;;43.65;15.38;;;;;;;;;;5050792;28;20020;-81
2023/11/21 08:53:27;;;;;;;39.53;15.88;;;;;;;;;;5050605;28;20123;-80
2023/11/21 08:55:53;;;;;;;43.92;14.95;;;;;;;;;;5050566;28;20024;-81
2023/11/21 08:58:19;;;;;;;44.50;16.15;;;;;;;;;;5050350;28;20028;-81
2023/11/21 09:00:46;;;;;;;54.78;15.85;;;;;;;;;;5050014;28;20017;-81
2023/11/21 09:03:11;;;;;;;38.25;14.20;;;;;;;;;;5050515;28;20036;-81
2023/11/21 09:05:40;;;;;;;45.08;14.27;;;;;;;;;;5050625;28;20028;-81
2023/11/21 09:08:06;;;;;;;44.55;14.77;;;;;;;;;;5050303;28;20353;-81
2023/11/21 09:10:32;;;;;;;40.00;14.20;;;;;;;;;;5050260;28;20067;-81
2023/11/21 09:12:58;;;;;;;45.08;16.38;;;;;;;;;;5083709;28;20017;-81
2023/11/21 09:15:25;;;;;;;45.08;16.10;;;;;;;;;;5051721;28;20409;-81
2023/11/21 09:17:50;;;;;;;37.90;13.02;;;;;;;;;;5050446;28;20178;-80
2023/11/21 09:20:15;;;;;;;47.15;15.43;;;;;;;;;;5046667;28;20217;-80
2023/11/21 09:22:41;;;;;;;43.35;15.48;;;;;;;;;;5048231;28;20025;-81
2023/11/21 09:25:08;;;;;;;43.65;15.07;;;;;;;;;;5055657;28;20024;-81
2023/11/21 09:27:33;;;;;;;44.17;16.25;;;;;;;;;;5055698;28;20013;-81
2023/11/21 09:29:58;;;;;;;42.58;15.82;;;;;;;;;;5055255;28;20442;-81
2023/11/21 09:32:24;;;;;;;40.08;14.02;;;;;;;;;;5054196;28;20507;-81
2023/11/21 09:34:50;;;;;;;35.28;13.50;;;;;;;;;;5055484;28;20523;-80
2023/11/21 09:37:15;;;;;;;37.20;13.05;;;;;;;;;;5053902;28;20357;-81
2023/11/21 09:39:41;;;;;;;37.72;14.13;;;;;;;;;;5055724;28;20417;-81
2023/11/21 09:42:16;;;;;;;37.78;12.55;;;;;;;;;;5053810;28;20044;-81
2023/11/21 09:44:44;;;;;;;34.05;13.27;;;;;;;;;;5054194;28;20048;-81
2023/11/21 09:47:14;;;;;;;32.33;12.90;;;;;;;;;;5053881;28;20072;-81
2023/11/21 09:49:39;;;;;;;36.58;12.02;;;;;;;;;;5053772;28;20112;-81
2023/11/21 09:52:06;;;;;;;38.50;13.35;;;;;;;;;;5053762;28;20045;-81
2023/11/21 09:54:31;;;;;;;36.10;12.27;;;;;;;;;;5053733;28;20016;-81
2023/11/21 09:57:00;;;;;;;35.67;13.20;;;;;;;;;;5053387;28;20469;-81
2023/11/21 09:59:29;;;;;;;31.00;11.57;;;;;;;;;;5053588;28;20100;-81
2023/11/21 10:01:58;;;;;;;28.52;12.38;;;;;;;;;;5087061;28;20449;-81
2023/11/21 10:04:23;;;;;;;29.92;12.60;;;;;;;;;;5053670;28;20326;-81
2023/11/21 10:06:50;;;;;;;31.25;11.60;;;;;;;;;;5053132;28;20032;-81
2023/11/21 10:09:15;;;;;;;33.60;11.88;;;;;;;;;;5053401;28;20021;-81
2023/11/21 10:11:41;;;;;;;30.08;11.95;;;;;;;;;;5053440;28;20021;-81
2023/11/21 10:14:10;;;;;;;37.17;12.57;;;;;;;;;;5053435;28;20483;-80
2023/11/21 10:16:37;;;;;;;32.78;11.68;;;;;;;;;;5052987;28;20729;-81
2023/11/21 10:19:02;;;;;;;34.03;12.75;;;;;;;;;;5086570;28;20017;-81
2023/11/21 10:21:28;;;;;;;38.30;13.52;;;;;;;;;;5054453;28;20092;-81
2023/11/21 10:23:53;;;;;;;39.72;13.85;;;;;;;;;;5053244;28;20021;-81
2023/11/21 10:26:20;;;;;;;35.47;13.35;;;;;;;;;;5053094;28;20083;-81
2023/11/21 10:28:57;;;;;;;37.08;12.70;;;;;;;;;;5052965;28;20503;-81
2023/11/21 10:31:24;;;;;;;39.65;13.50;;;;;;;;;;5053110;28;20025;-81
2023/11/21 10:33:49;;;;;;;35.03;13.38;;;;;;;;;;5052852;28;20191;-81
2023/11/21 10:36:24;;;;;;;43.28;14.75;;;;;;;;;;5052720;28;20116;-81
2023/11/21 10:38:52;;;;;;;34.78;13.80;;;;;;;;;;5040682;28;20480;-81
2023/11/21 10:41:18;;;;;;;35.38;12.55;;;;;;;;;;5052979;28;20021;-81
2023/11/21 10:43:43;;;;;;;32.70;13.50;;;;;;;;;;5050506;28;20380;-81
2023/11/21 10:46:09;;;;;;;42.58;14.13;;;;;;;;;;5057049;28;20469;-81
2023/11/21 10:48:35;;;;;;;36.90;12.95;;;;;;;;;;5058945;28;20092;-80
2023/11/21 10:51:06;;;;;;;39.53;13.70;;;;;;;;;;5068906;28;20073;-81
2023/11/21 10:53:31;;;;;;;38.35;13.77;;;;;;;;;;5059564;28;20436;-81
2023/11/21 10:56:01;;;;;;;38.83;14.95;;;;;;;;;;5065106;28;20017;-81
2023/11/21 10:58:26;;;;;;;38.38;13.85;;;;;;;;;;5052650;28;20025;-81
2023/11/21 11:00:52;;;;;;;45.83;14.23;;;;;;;;;;5071548;28;20339;-81
2023/11/21 11:03:17;;;;;;;41.85;13.73;;;;;;;;;;5073668;28;20013;-81
2023/11/21 11:05:51;;;;;;;47.17;15.55;;;;;;;;;;5058853;28;20019;-81
2023/11/21 11:08:18;;;;;;;42.28;14.02;;;;;;;;;;5038990;28;20063;-81
2023/11/21 11:10:46;;;;;;;38.08;13.48;;;;;;;;;;5039714;28;20032;-81
2023/11/21 11:13:14;;;;;;;32.83;13.35;;;;;;;;;;5052887;28;20021;-81
2023/11/21 11:15:39;;;;;;;33.97;14.13;;;;;;;;;;5051799;28;20016;-81
2023/11/21 11:18:06;;;;;;;40.70;13.75;;;;;;;;;;5045106;28;20078;-81
2023/11/21 11:20:37;;;;;;;40.65;13.63;;;;;;;;;;5045360;28;20037;-81
2023/11/21 11:23:08;;;;;;;38.13;14.90;;;;;;;;;;5081972;28;20017;-81
2023/11/21 11:25:35;;;;;;;32.60;13.82;;;;;;;;;;5052163;28;20045;-80
2023/11/21 11:28:29;;;;;;;32.78;12.70;;;;;;;;;;5053398;28;20079;-80
2023/11/21 11:31:08;;;;;;;36.28;13.38;;;;;;;;;;5049748;28;20037;-80
2023/11/21 11:33:42;;;;;;;28.42;10.48;;;;;;;;;;5051841;28;20025;-81
2023/11/21 11:36:26;;;;;;;38.78;13.82;;;;;;;;;;5051864;28;20027;-81
2023/11/21 11:38:52;;;;;;;36.60;13.35;;;;;;;;;;5055792;28;20382;-81
2023/11/21 11:41:25;;;;;;;24.33;9.88;;;;;;;;;;5050088;28;20024;-80
2023/11/21 11:43:50;;;;;;;25.77;10.07;;;;;;;;;;5051549;28;20024;-80
2023/11/21 11:46:16;;;;;;;26.40;8.70;;;;;;;;;;5052683;28;20017;-81
2023/11/21 11:48:41;;;;;;;25.27;9.45;;;;;;;;;;5052237;28;20487;-80
2023/11/21 11:51:20;;;;;;;23.25;9.77;;;;;;;;;;5051654;28;20060;-81
2023/11/21 11:53:46;;;;;;;21.05;9.02;;;;;;;;;;5085044;28;20388;-80
2023/11/21 11:56:33;;;;;;;22.70;8.98;;;;;;;;;;5052704;28;20085;-81
2023/11/21 11:59:02;;;;;;;18.08;8.07;;;;;;;;;;5050717;28;20104;-80
2023/11/21 12:01:27;;;;;;;26.70;8.90;;;;;;;;;;5063405;28;20935;-80
2023/11/21 12:04:14;;;;;;;21.92;8.73;;;;;;;;;;5053477;28;20112;-80
2023/11/21 12:06:41;;;;;;;20.60;7.82;;;;;;;;;;5041414;28;20021;-81
2023/11/21 12:09:06;;;;;;;20.92;8.48;;;;;;;;;;5050976;28;20021;-81
2023/11/21 12:11:32;;;;;;;21.67;9.07;;;;;;;;;;5084551;28;20457;-81
2023/11/21 12:13:58;;;;;;;19.92;7.03;;;;;;;;;;5051155;28;20058;-81
2023/11/21 12:16:27;;;;;;;16.30;7.40;;;;;;;;;;5051028;28;20029;-80
2023/11/21 12:18:53;;;;;;;17.20;7.43;;;;;;;;;;5051012;28;20123;-81
2023/11/21 12:21:19;;;;;;;22.13;8.52;;;;;;;;;;5052471;28;20024;-80
2023/11/21 12:23:45;;;;;;;18.73;7.60;;;;;;;;;;5051216;28;20098;-81
2023/11/21 12:26:11;;;;;;;18.00;6.88;;;;;;;;;;5050788;28;20045;-80
2023/11/21 12:28:36;;;;;;;16.55;7.38;;;;;;;;;;5050751;28;20045;-81
2023/11/21 12:31:01;;;;;;;17.73;7.60;;;;;;;;;;5047026;28;20736;-81
2023/11/21 12:33:29;;;;;;;19.50;8.18;;;;;;;;;;5046209;28;20029;-80
2023/11/21 12:35:54;;;;;;;17.80;7.45;;;;;;;;;;5047397;28;20082;-81
2023/11/21 12:38:19;;;;;;;16.38;7.25;;;;;;;;;;5083317;28;20021;-81
2023/11/21 12:40:44;;;;;;;16.85;7.18;;;;;;;;;;5049879;28;20083;-80
2023/11/21 12:43:10;;;;;;;18.50;7.18;;;;;;;;;;5083770;28;20518;-80
2023/11/21 12:45:35;;;;;;;16.92;7.43;;;;;;;;;;5080922;28;20162;-79
2023/11/21 12:48:03;;;;;;;14.50;7.00;;;;;;;;;;5081754;28;20371;-80
2023/11/21 12:50:31;;;;;;;11.52;5.78;;;;;;;;;;5048103;28;20407;-80
2023/11/21 12:52:59;;;;;;;10.43;5.10;;;;;;;;;;5051426;28;20021;-81
2023/11/21 12:55:26;;;;;;;15.02;6.22;;;;;;;;;;5052280;28;20024;-81
2023/11/21 12:57:51;;;;;;;13.18;5.88;;;;;;;;;;5066781;28;20021;-81
2023/11/21 13:00:29;;;;;;;16.88;6.80;;;;;;;;;;5055852;28;20028;-81
2023/11/21 13:02:56;;;;;;;16.30;7.68;;;;;;;;;;5053313;28;20020;-81
2023/11/21 13:05:38;;;;;;;16.95;7.45;;;;;;;;;;5053622;28;20163;-81
2023/11/21 13:08:07;;;;;;;15.93;6.43;;;;;;;;;;5050532;28;20013;-81
2023/11/21 13:10:36;;;;;;;13.95;6.68;;;;;;;;;;5083810;28;20369;-81
2023/11/21 13:13:05;;;;;;;17.23;6.50;;;;;;;;;;5051168;28;20448;-81
2023/11/21 13:15:31;;;;;;;17.17;6.28;;;;;;;;;;5050259;28;20097;-81
2023/11/21 13:17:57;;;;;;;13.05;5.68;;;;;;;;;;5050082;28;20111;-81
2023/11/21 13:20:24;;;;;;;13.82;6.03;;;;;;;;;;5051689;28;20029;-79
2023/11/21 13:22:51;;;;;;;10.65;5.30;;;;;;;;;;5049746;28;20017;-80
2023/11/21 13:25:17;;;;;;;11.52;5.75;;;;;;;;;;5066554;28;20491;-80
2023/11/21 13:27:44;;;;;;;13.57;5.15;;;;;;;;;;5059854;28;20020;-80
2023/11/21 13:30:10;;;;;;;8.55;4.38;;;;;;;;;;5071635;28;20052;-81
2023/11/21 13:32:35;;;;;;;10.07;4.35;;;;;;;;;;5068263;28;20083;-80
2023/11/21 13:35:00;;;;;;;12.75;4.70;;;;;;;;;;5063674;28;20108;-80
2023/11/21 13:37:28;;;;;;;9.63;4.22;;;;;;;;;;5064699;28;20029;-81
2023/11/21 13:39:54;;;;;;;7.53;3.92;;;;;;;;;;5070467;28;20016;-80
2023/11/21 13:42:22;;;;;;;10.25;4.40;;;;;;;;;;5060226;28;20012;-80
2023/11/21 13:44:49;;;;;;;8.32;4.22;;;;;;;;;;5050831;28;20021;-80
2023/11/21 13:47:14;;;;;;;11.50;4.65;;;;;;;;;;5058382;28;20013;-80
2023/11/21 13:49:41;;;;;;;7.72;4.20;;;;;;;;;;5063776;28;20100;-80
2023/11/21 13:52:07;;;;;;;10.02;4.78;;;;;;;;;;5065456;28;20367;-79
2023/11/21 13:54:32;;;;;;;9.70;4.40;;;;;;;;;;5054623;28;20032;-80
2023/11/21 13:56:59;;;;;;;9.25;4.13;;;;;;;;;;5059642;28;20469;-80
2023/11/21 13:59:30;;;;;;;8.15;4.13;;;;;;;;;;5054265;28;20039;-80
2023/11/21 14:01:57;;;;;;;6.97;3.63;;;;;;;;;;5069098;28;20036;-81
2023/11/21 14:04:39;;;;;;;7.50;4.22;;;;;;;;;;5054362;28;20052;-79
2023/11/21 14:07:20;;;;;;;10.32;4.20;;;;;;;;;;5042234;28;20032;-81
2023/11/21 14:09:45;;;;;;;6.78;3.78;;;;;;;;;;5045431;28;20086;-80
2023/11/21 14:12:12;;;;;;;6.10;3.10;;;;;;;;;;5054748;28;20028;-80
2023/11/21 14:14:39;;;;;;;4.90;2.47;;;;;;;;;;5053119;28;20468;-80